메인 페이지
METAR-TAF:

METAR-TAF

공항 :

이즈미트, 터키

위도: 40-44N, 경도: 030-05E, 고도: 50m

현재 날씨관측

예보는 51분 전, 13:50시(UTC)에 발표되었습니다.
여러 방향의 바람 3kt
온도 18°C
습도 45%
기압 1003 hPa
시정 10km 이상
1500m 미만 상공 구름 및 적란운 없음

METAR: LTBQ 141350Z VRB03KT CAVOK 18/06 Q1003 NOSIG

시각: 17:41 (14:41 UTC)

예보

예보는 1 시간 1분 전, 13:40시(UTC)에 발표되었습니다.
예보 대상 시간: 14일 15시부터 14일 24시까지 (UTC)
여러 방향의 바람 2kt
시정 10km 이상
1500m 미만 상공 구름 및 적란운 없음
일시적
14일 15시부터 14일 17시까지 (UTC)
12kt

TAF: LTBQ 141340Z 1415/1424 VRB02KT CAVOK TEMPO 1415/1417 10012KT

4,000개 이상의 공항 관측 자료 및 예보 (METAR 및 TAF 보고).

지도상에서 검색 가능한 기상관측소가 노란 점과 빨간 점으로 표시되어 있습니다.

기상관측소 명을 보려면 표시 위로 마우스를 이동하세요.

날씨 관측과 예보를 보려면 클릭하세요.

지도 변경 : 확대하려면 엑스 표시가 있는 녹색 버튼, 축소하려면 빼기 표시가 있는 녹색 버튼, 다음 페이지의 지도를 보려면 녹색 화살표를 클릭하세요.


METAR-TAF: